FNG8 EFTU-EFTU

Flight info

Callsign FNG8
Flight time 0h 11m
Altitude 2000
Route NOUSU KUMLINGE NOUSU
Aircraft D228/L-SDFGHILORVY/S

Departure

Time 2026-04-29 05:52
Airport Turku Airport (EFTU)

Arrival

Time 2026-04-29 06:04
Airport Turku Airport (EFTU)
Time Latitude Longitude Altitude Speed Heading
2026-04-29 05:41 60.23964 20.78996 2383 ft 160 kts 94°
2026-04-29 05:41 60.23799 20.81287 2394 ft 170 kts 94°
2026-04-29 05:41 60.23638 20.83666 2391 ft 173 kts 94°
2026-04-29 05:41 60.23474 20.86067 2390 ft 173 kts 94°
2026-04-29 05:42 60.23311 20.88470 2391 ft 174 kts 94°
2026-04-29 05:42 60.23147 20.90880 2391 ft 174 kts 94°
2026-04-29 05:42 60.22982 20.93290 2389 ft 174 kts 94°
2026-04-29 05:42 60.22817 20.95700 2390 ft 174 kts 94°
2026-04-29 05:43 60.22657 20.98027 2369 ft 146 kts 94°
2026-04-29 05:43 60.22790 20.99825 2266 ft 122 kts 52°
2026-04-29 05:43 60.23481 21.00620 2294 ft 117 kts 359°
2026-04-29 05:43 60.24151 20.99756 2363 ft 127 kts 299°
2026-04-29 05:44 60.24060 20.97965 2408 ft 141 kts 241°
2026-04-29 05:44 60.23226 20.96965 2424 ft 148 kts 184°
2026-04-29 05:44 60.22331 20.97749 2363 ft 145 kts 122°
2026-04-29 05:44 60.22255 20.99565 2363 ft 134 kts 54°
2026-04-29 05:45 60.23093 21.00540 2402 ft 153 kts 17°
2026-04-29 05:45 60.24115 21.01336 2376 ft 163 kts 32°
2026-04-29 05:45 60.24946 21.02960 2288 ft 170 kts 44°
2026-04-29 05:45 60.25755 21.04711 2187 ft 172 kts 44°
2026-04-29 05:46 60.26568 21.06489 2090 ft 173 kts 45°
2026-04-29 05:46 60.27371 21.08267 2070 ft 170 kts 45°
2026-04-29 05:46 60.28167 21.10016 2065 ft 169 kts 45°
2026-04-29 05:46 60.28958 21.11762 2068 ft 168 kts 45°
2026-04-29 05:47 60.29751 21.13507 2067 ft 169 kts 44°
2026-04-29 05:47 60.30536 21.15236 2065 ft 169 kts 45°
2026-04-29 05:47 60.31325 21.16976 2064 ft 168 kts 45°
2026-04-29 05:47 60.32114 21.18722 2064 ft 169 kts 45°
2026-04-29 05:48 60.32905 21.20476 2064 ft 169 kts 45°
2026-04-29 05:48 60.33705 21.22226 2070 ft 169 kts 44°
2026-04-29 05:48 60.34497 21.23985 2065 ft 169 kts 45°
2026-04-29 05:48 60.35279 21.25711 2065 ft 169 kts 45°
2026-04-29 05:49 60.36070 21.27460 2065 ft 169 kts 45°
2026-04-29 05:49 60.36866 21.29216 2065 ft 169 kts 46°
2026-04-29 05:49 60.37613 21.31071 2076 ft 171 kts 49°
2026-04-29 05:49 60.38340 21.32949 2080 ft 168 kts 49°
2026-04-29 05:50 60.39058 21.34814 2075 ft 168 kts 49°
2026-04-29 05:50 60.39769 21.36677 2079 ft 167 kts 49°
2026-04-29 05:50 60.40483 21.38550 2071 ft 167 kts 49°
2026-04-29 05:50 60.41187 21.40405 2068 ft 166 kts 49°
2026-04-29 05:51 60.41887 21.42260 2074 ft 167 kts 49°
2026-04-29 05:51 60.42597 21.44132 2067 ft 166 kts 49°
2026-04-29 05:51 60.43293 21.45966 1998 ft 168 kts 49°
2026-04-29 05:51 60.44017 21.47873 1788 ft 172 kts 49°
2026-04-29 05:52 60.44746 21.49783 1690 ft 169 kts 49°
2026-04-29 05:52 60.45458 21.51654 1688 ft 166 kts 49°
2026-04-29 05:52 60.46167 21.53514 1679 ft 166 kts 49°
2026-04-29 05:52 60.46874 21.55360 1678 ft 166 kts 49°
2026-04-29 05:53 60.47579 21.57215 1683 ft 166 kts 49°
2026-04-29 05:53 60.48275 21.59060 1686 ft 167 kts 49°
2026-04-29 05:53 60.48993 21.60905 1681 ft 165 kts 44°
2026-04-29 05:53 60.49827 21.62499 1687 ft 165 kts 39°
2026-04-29 05:54 60.50681 21.64055 1680 ft 165 kts 39°
2026-04-29 05:54 60.51527 21.65605 1682 ft 165 kts 39°
2026-04-29 05:54 60.52384 21.67172 1609 ft 167 kts 39°
2026-04-29 05:54 60.53247 21.68756 1536 ft 167 kts 39°
2026-04-29 05:55 60.54118 21.70349 1458 ft 168 kts 39°
2026-04-29 05:55 60.54980 21.71921 1380 ft 169 kts 39°
2026-04-29 05:55 60.55848 21.73516 1311 ft 168 kts 39°
2026-04-29 05:55 60.56723 21.75110 1220 ft 169 kts 39°
2026-04-29 05:56 60.57597 21.76700 1187 ft 167 kts 39°
2026-04-29 05:56 60.58460 21.78273 1188 ft 166 kts 39°
2026-04-29 05:56 60.59321 21.79829 1183 ft 165 kts 37°
2026-04-29 05:56 60.60212 21.81302 1182 ft 165 kts 36°
2026-04-29 05:57 60.61111 21.82759 1183 ft 165 kts 36°
2026-04-29 05:57 60.62010 21.84221 1181 ft 165 kts 36°
2026-04-29 05:57 60.62852 21.85805 1174 ft 166 kts 54°
2026-04-29 05:57 60.63122 21.88085 1182 ft 172 kts 83°
2026-04-29 05:58 60.63124 21.90544 1184 ft 174 kts 87°
2026-04-29 05:58 60.63085 21.93013 1188 ft 175 kts 88°
2026-04-29 05:58 60.63050 21.95500 1195 ft 176 kts 88°
2026-04-29 05:58 60.63016 21.97995 1196 ft 176 kts 87°
2026-04-29 05:59 60.62984 22.00489 1189 ft 176 kts 87°
2026-04-29 05:59 60.62950 22.02987 1192 ft 175 kts 89°
2026-04-29 05:59 60.62628 22.05397 1178 ft 180 kts 113°
2026-04-29 05:59 60.61856 22.07424 1178 ft 183 kts 135°
2026-04-29 06:00 60.60896 22.09142 1175 ft 184 kts 135°
2026-04-29 06:00 60.59954 22.10851 1181 ft 184 kts 136°
2026-04-29 06:00 60.58999 22.12579 1183 ft 183 kts 136°
2026-04-29 06:00 60.58042 22.14314 1158 ft 186 kts 136°
2026-04-29 06:01 60.57073 22.16067 1083 ft 187 kts 136°
2026-04-29 06:01 60.56129 22.17758 988 ft 166 kts 137°
2026-04-29 06:01 60.55298 22.19239 871 ft 151 kts 136°
2026-04-29 06:01 60.54546 22.20606 773 ft 142 kts 135°
2026-04-29 06:02 60.53815 22.21939 691 ft 139 kts 136°
2026-04-29 06:02 60.53135 22.23233 674 ft 132 kts 126°
2026-04-29 06:02 60.52903 22.24916 655 ft 122 kts 84°
2026-04-29 06:02 60.52956 22.26643 709 ft 118 kts 83°
2026-04-29 06:03 60.52994 22.28324 723 ft 119 kts 84°
2026-04-29 06:03 60.52953 22.29972 769 ft 115 kts 105°
2026-04-29 06:03 60.52338 22.30891 601 ft 117 kts 174°
2026-04-29 06:03 60.51652 22.30330 388 ft 108 kts 243°
2026-04-29 06:04 60.51526 22.28901 218 ft 97 kts 268°
2026-04-29 06:04 60.51478 22.27723 147 ft 73 kts 264°
2026-04-29 06:04 60.51444 22.26994 145 ft 29 kts 265°
2026-04-29 06:04 60.51415 22.26738 142 ft 12 kts 220°
2026-04-29 06:05 60.51335 22.26732 143 ft 13 kts 179°
2026-04-29 06:05 60.51303 22.26629 143 ft 11 kts 272°
2026-04-29 06:05 60.51272 22.26505 146 ft 10 kts 180°
2026-04-29 06:05 60.51225 22.26527 151 ft 6 kts 136°
2026-04-29 06:06 60.51201 22.26569 155 ft 3 kts 159°
2026-04-29 06:06 60.51190 22.26574 156 ft 3 kts 173°
2026-04-29 06:06 60.51170 22.26577 158 ft 0 kts 178°